Barnstaple, United Kingdom
Current Conditions -  °F | °C
As of 6:50 AM on Saturday 20 Dec 2014 (Local Time) from EGDX Reporting Station
Broken Clouds Broken Clouds  
Wind Chill:   Ceiling: 4400
Heat Index:   Visibility: 6mi
Dew Point:   Wind: 17mph
Humidity: 76%   Direction: 280°W
Pressure: 30.27"   Gusts: NA
Location:  51.08°N, 4.06°W
Report Text: EGDX 200650Z AUTO 28015KT 9999 FEW029/// BKN044/// 08/04 Q1025
Loading
Personal Weather Stations






























Interactive Weather Map New forecast layout! Learn more

10-Day Weather Forecast

Advertisements
Track Severe Weather on mobile